Time;durP1;ratioP1;P1;durP2;ratioP2;P2;SDS_P1;SDS_P2;PMS_P1;PMS_P2;Temp;Humidity;BMP_temperature;BMP_pressure;BME280_temperature;BME280_humidity;BME280_pressure;Samples;Min_cycle;Max_cycle;Signal;HPM_P1;HPM_P2
2021/11/02 00:02:01;;;;;;;6.85;3.25;;;7.30;99.90;;;;;;5051622;28;20044;-70
2021/11/02 00:04:26;;;;;;;4.93;2.88;;;7.30;99.90;;;;;;5057357;28;20036;-70
2021/11/02 00:06:52;;;;;;;4.65;2.90;;;7.30;99.90;;;;;;5061039;28;20394;-70
2021/11/02 00:09:21;;;;;;;4.05;2.83;;;7.30;99.90;;;;;;5055412;28;20167;-70
2021/11/02 00:11:47;;;;;;;4.60;3.50;;;7.30;99.90;;;;;;5052195;28;20032;-70
2021/11/02 00:14:14;;;;;;;4.30;3.10;;;7.30;99.90;;;;;;5053514;28;20058;-70
2021/11/02 00:16:41;;;;;;;7.38;3.85;;;7.20;99.90;;;;;;5057379;28;20075;-70
2021/11/02 00:19:07;;;;;;;6.95;3.28;;;7.20;99.90;;;;;;5055980;28;20055;-70
2021/11/02 00:21:38;;;;;;;7.95;4.40;;;7.20;99.90;;;;;;5053411;28;20044;-70
2021/11/02 00:24:15;;;;;;;5.53;3.60;;;7.20;99.90;;;;;;5052571;28;20082;-69
2021/11/02 00:26:41;;;;;;;8.95;5.03;;;7.20;99.90;;;;;;5055765;28;20119;-70
2021/11/02 00:29:08;;;;;;;10.95;4.82;;;7.20;99.90;;;;;;5053455;28;20121;-70
2021/11/02 00:31:33;;;;;;;6.80;4.80;;;7.20;99.90;;;;;;5055026;28;21663;-70
2021/11/02 00:34:00;;;;;;;10.70;5.10;;;7.20;99.90;;;;;;5053241;28;20044;-70
2021/11/02 00:36:25;;;;;;;9.02;5.97;;;7.20;99.90;;;;;;5056956;28;20056;-70
2021/11/02 00:38:51;;;;;;;13.10;5.55;;;7.20;99.90;;;;;;5057802;28;20025;-70
2021/11/02 00:41:16;;;;;;;8.98;5.32;;;7.20;99.90;;;;;;5054514;28;20131;-70
2021/11/02 00:43:44;;;;;;;7.97;5.55;;;7.20;99.90;;;;;;5052350;28;20037;-70
2021/11/02 00:46:10;;;;;;;7.18;4.70;;;7.00;99.90;;;;;;5057240;28;20056;-70
2021/11/02 00:48:35;;;;;;;6.10;5.47;;;7.10;99.90;;;;;;5055780;28;20063;-70
2021/11/02 00:51:02;;;;;;;8.60;5.95;;;7.10;99.90;;;;;;5060644;28;20044;-70
2021/11/02 00:53:27;;;;;;;7.30;5.95;;;7.10;99.90;;;;;;5055458;28;20463;-70
2021/11/02 00:55:53;;;;;;;6.35;5.70;;;7.10;99.90;;;;;;5060542;28;20049;-70
2021/11/02 00:58:22;;;;;;;7.43;5.70;;;7.00;99.90;;;;;;5059478;28;20045;-70
2021/11/02 01:00:49;;;;;;;7.25;6.00;;;7.00;99.90;;;;;;5061098;28;20113;-70
2021/11/02 01:03:14;;;;;;;7.70;6.15;;;7.10;99.90;;;;;;5055753;28;20040;-70
2021/11/02 01:05:40;;;;;;;7.35;5.82;;;6.90;99.90;;;;;;5059300;28;20041;-70
2021/11/02 01:08:06;;;;;;;8.55;6.47;;;6.90;99.90;;;;;;5060929;28;20501;-70
2021/11/02 01:10:32;;;;;;;15.25;7.22;;;6.90;99.90;;;;;;5058705;28;20117;-70
2021/11/02 01:12:58;;;;;;;9.60;7.10;;;6.90;99.90;;;;;;5055874;28;20048;-70
2021/11/02 01:15:30;;;;;;;12.32;7.35;;;6.90;99.90;;;;;;5058454;28;20033;-70
2021/11/02 01:17:57;;;;;;;9.55;6.15;;;6.90;99.90;;;;;;5056134;28;20044;-70
2021/11/02 01:20:23;;;;;;;8.07;6.22;;;6.80;99.90;;;;;;5058098;28;20044;-70
2021/11/02 01:22:50;;;;;;;12.63;6.88;;;6.90;99.90;;;;;;5054495;28;20418;-70
2021/11/02 01:25:16;;;;;;;10.38;6.63;;;6.90;99.90;;;;;;5091866;28;20125;-70
2021/11/02 01:27:42;;;;;;;11.02;7.05;;;6.90;99.90;;;;;;5059280;28;20083;-70
2021/11/02 01:30:10;;;;;;;8.10;6.50;;;6.90;99.90;;;;;;5059503;28;20040;-70
2021/11/02 01:32:36;;;;;;;14.30;7.28;;;6.90;99.90;;;;;;5057151;28;20045;-70
2021/11/02 01:35:02;;;;;;;12.40;7.50;;;6.90;99.90;;;;;;5055019;28;20035;-70
2021/11/02 01:37:30;;;;;;;10.63;7.15;;;6.90;99.90;;;;;;5056445;28;20064;-70
2021/11/02 01:39:56;;;;;;;7.93;7.07;;;6.90;99.90;;;;;;5056308;28;20109;-70
2021/11/02 01:42:25;;;;;;;17.85;8.25;;;6.90;99.90;;;;;;5056623;28;20044;-70
2021/11/02 01:44:53;;;;;;;9.63;7.30;;;6.90;99.90;;;;;;5056772;28;20056;-70
2021/11/02 01:47:20;;;;;;;10.68;7.13;;;6.90;99.90;;;;;;5055879;28;20079;-70
2021/11/02 01:49:46;;;;;;;10.43;7.18;;;6.90;99.90;;;;;;5056041;28;20124;-70
2021/11/02 01:52:12;;;;;;;11.77;7.93;;;6.90;99.90;;;;;;5055685;28;20469;-70
2021/11/02 01:54:38;;;;;;;9.70;7.32;;;6.90;99.90;;;;;;5058462;28;20033;-70
2021/11/02 01:57:04;;;;;;;15.15;7.00;;;6.90;99.90;;;;;;5054326;28;20055;-70
2021/11/02 01:59:33;;;;;;;12.85;7.28;;;6.90;99.90;;;;;;5056011;28;20056;-70
2021/11/02 02:02:33;;;;;;;11.15;6.60;;;6.90;99.90;;;;;;5056281;28;20065;-70
2021/11/02 02:05:10;;;;;;;11.77;7.55;;;6.90;99.90;;;;;;5056164;28;20040;-70
2021/11/02 02:08:09;;;;;;;11.15;7.60;;;6.90;99.90;;;;;;5055642;28;20059;-70
2021/11/02 02:10:59;;;;;;;12.38;7.25;;;6.90;99.90;;;;;;5059239;28;20041;-70
2021/11/02 02:13:43;;;;;;;10.18;7.18;;;6.90;99.90;;;;;;5054863;28;20048;-70
2021/11/02 02:16:21;;;;;;;10.18;7.03;;;6.90;99.90;;;;;;5057438;28;20052;-70
2021/11/02 02:18:57;;;;;;;9.75;6.93;;;6.90;99.90;;;;;;5058860;28;20105;-70
2021/11/02 02:21:48;;;;;;;9.70;6.97;;;6.80;99.90;;;;;;5060959;28;20048;-70
2021/11/02 02:24:50;;;;;;;15.48;8.43;;;6.90;99.90;;;;;;5054981;28;20467;-70
2021/11/02 02:27:41;;;;;;;13.32;7.00;;;6.80;99.90;;;;;;5039707;28;20048;-70
2021/11/02 02:30:16;;;;;;;14.70;6.70;;;6.80;99.90;;;;;;5073337;28;20048;-69
2021/11/02 02:32:49;;;;;;;14.93;7.20;;;6.80;99.90;;;;;;5055748;28;20083;-70
2021/11/02 02:35:18;;;;;;;13.23;8.07;;;6.80;99.90;;;;;;5058528;28;20048;-70
2021/11/02 02:37:46;;;;;;;11.07;7.05;;;6.80;99.90;;;;;;5058815;28;20032;-70
2021/11/02 02:40:12;;;;;;;9.30;7.03;;;6.80;99.90;;;;;;5057895;28;20363;-70
2021/11/02 02:42:38;;;;;;;11.98;7.25;;;6.70;99.90;;;;;;5085871;28;20060;-70
2021/11/02 02:45:07;;;;;;;10.00;7.72;;;6.70;99.90;;;;;;5058298;28;20069;-70
2021/11/02 02:47:34;;;;;;;12.38;7.20;;;6.80;99.90;;;;;;5057788;28;20126;-70
2021/11/02 02:50:01;;;;;;;13.80;7.22;;;6.70;99.90;;;;;;5058381;28;20052;-70
2021/11/02 02:52:31;;;;;;;9.27;7.40;;;6.80;99.90;;;;;;5062608;28;20735;-70
2021/11/02 02:54:58;;;;;;;9.27;6.93;;;6.70;99.90;;;;;;5093535;27;20090;-70
2021/11/02 02:57:25;;;;;;;12.05;7.22;;;6.70;99.90;;;;;;5062696;28;20044;-70
2021/11/02 02:59:52;;;;;;;13.32;8.23;;;6.70;99.90;;;;;;5095152;27;20094;-70
2021/11/02 03:02:19;;;;;;;12.23;7.45;;;6.70;99.90;;;;;;5060011;28;20041;-70
2021/11/02 03:04:48;;;;;;;12.48;7.80;;;6.70;99.90;;;;;;5062284;28;20036;-70
2021/11/02 03:07:16;;;;;;;10.98;8.05;;;6.70;99.90;;;;;;5064364;28;20124;-70
2021/11/02 03:09:45;;;;;;;11.18;7.57;;;6.70;99.90;;;;;;5091535;27;20059;-70
2021/11/02 03:12:12;;;;;;;11.55;8.60;;;6.70;99.90;;;;;;5060687;28;20110;-69
2021/11/02 03:14:55;;;;;;;12.30;7.93;;;6.60;99.90;;;;;;5094469;28;20055;-70
2021/11/02 03:17:25;;;;;;;9.32;7.53;;;6.70;99.90;;;;;;5094745;28;20052;-70
2021/11/02 03:20:29;;;;;;;12.30;8.88;;;6.70;99.90;;;;;;5064312;28;20037;-70
2021/11/02 03:56:00;;;;;;;18.95;9.50;;;6.60;99.90;;;;;;5090131;28;20053;-70
2021/11/02 03:58:34;;;;;;;20.42;9.75;;;6.60;99.90;;;;;;5055526;28;20057;-70
2021/11/02 04:26:54;;;;;;;15.98;9.35;;;6.40;99.90;;;;;;5057603;28;20084;-70
2021/11/02 04:48:16;;;;;;;14.05;9.07;;;6.30;99.90;;;;;;5062330;28;20045;-70
2021/11/02 05:07:22;;;;;;;19.83;10.80;;;6.30;99.90;;;;;;5062009;28;20190;-70
2021/11/02 05:10:05;;;;;;;15.65;11.50;;;6.20;99.90;;;;;;5060076;28;20052;-70
2021/11/02 06:04:30;;;;;;;20.65;11.20;;;5.90;99.90;;;;;;5059232;28;20398;-70
2021/11/02 06:07:14;;;;;;;15.80;11.25;;;5.90;99.90;;;;;;5055873;28;20605;-70
2021/11/02 06:09:52;;;;;;;23.55;12.18;;;5.90;99.90;;;;;;5056942;28;20161;-70
2021/11/02 06:27:44;;;;;;;15.43;11.57;;;5.90;99.90;;;;;;5056760;28;20048;-70
2021/11/02 06:29:16;;;;;;;19.02;11.32;;;5.90;99.90;;;;;;5057201;28;20048;-70
2021/11/02 06:31:51;;;;;;;23.98;11.77;;;5.90;99.90;;;;;;5055124;28;20422;-70
2021/11/02 06:34:41;;;;;;;18.23;10.82;;;5.90;99.90;;;;;;5087702;27;20044;-70
2021/11/02 06:42:50;;;;;;;19.50;11.20;;;5.90;99.90;;;;;;5086191;28;20553;-70
2021/11/02 06:48:30;;;;;;;17.20;11.85;;;5.90;99.90;;;;;;5056229;28;20052;-70
2021/11/02 07:15:27;;;;;;;16.15;10.77;;;6.10;99.90;;;;;;5056673;28;20139;-71
2021/11/02 07:16:53;;;;;;;18.85;11.18;;;6.20;99.90;;;;;;5056272;28;20053;-71
2021/11/02 07:19:26;;;;;;;17.13;11.38;;;6.20;99.90;;;;;;5056973;28;20049;-71
2021/11/02 07:24:39;;;;;;;15.10;10.73;;;6.20;99.90;;;;;;5055175;28;20056;-70
2021/11/02 08:48:27;;;;;;;11.95;10.07;;;7.60;99.90;;;;;;5053164;28;20083;-70
2021/11/02 08:50:55;;;;;;;10.98;9.73;;;7.60;99.90;;;;;;5051523;28;20048;-70
2021/11/02 08:53:23;;;;;;;12.25;10.43;;;7.60;99.90;;;;;;5050251;28;20055;-70
2021/11/02 08:55:51;;;;;;;14.50;10.82;;;7.60;99.90;;;;;;5055021;28;20075;-70
2021/11/02 08:58:26;;;;;;;13.80;9.23;;;7.80;99.90;;;;;;5051568;28;20040;-70
2021/11/02 09:00:59;;;;;;;9.90;8.90;;;7.80;99.90;;;;;;5053511;28;20041;-70
2021/11/02 09:03:30;;;;;;;9.98;8.77;;;8.00;99.90;;;;;;5053738;28;20796;-70
2021/11/02 09:06:03;;;;;;;11.18;9.40;;;8.10;99.90;;;;;;5051496;28;20056;-69
2021/11/02 09:08:34;;;;;;;10.68;8.38;;;8.20;99.90;;;;;;5056902;28;20107;-69
2021/11/02 09:11:01;;;;;;;15.15;8.85;;;8.20;99.90;;;;;;5061760;28;20044;-69
2021/11/02 09:13:27;;;;;;;17.80;9.43;;;8.30;99.90;;;;;;5054482;28;20041;-70
2021/11/02 09:15:59;;;;;;;11.93;10.00;;;8.30;99.90;;;;;;5057418;28;20045;-69
2021/11/02 09:18:27;;;;;;;13.63;9.80;;;8.30;99.90;;;;;;5057521;28;20032;-69
2021/11/02 09:20:54;;;;;;;17.35;10.43;;;8.30;99.90;;;;;;5055116;28;20549;-69
2021/11/02 09:23:20;;;;;;;16.70;12.13;;;8.40;99.90;;;;;;5053456;28;20768;-69
2021/11/02 09:25:47;;;;;;;16.30;12.88;;;8.40;99.90;;;;;;5056638;28;20047;-69
2021/11/02 09:28:14;;;;;;;16.20;12.40;;;8.60;99.90;;;;;;5057973;28;20141;-68
2021/11/02 09:30:40;;;;;;;18.60;12.52;;;8.60;99.90;;;;;;5054453;28;20071;-68
2021/11/02 09:33:06;;;;;;;15.43;12.68;;;8.70;99.90;;;;;;5054531;28;20843;-69
2021/11/02 09:35:32;;;;;;;15.77;11.40;;;8.70;99.90;;;;;;5058654;28;20028;-68
2021/11/02 09:38:22;;;;;;;14.95;11.13;;;8.80;99.90;;;;;;5055344;28;20516;-68
2021/11/02 09:41:12;;;;;;;14.55;11.20;;;8.80;99.90;;;;;;5090143;27;20458;-69
2021/11/02 09:44:02;;;;;;;17.58;11.65;;;8.90;99.90;;;;;;5055470;28;20099;-69
2021/11/02 09:46:51;;;;;;;14.30;9.55;;;8.90;99.90;;;;;;5032695;28;20045;-69
2021/11/02 09:49:35;;;;;;;12.13;8.80;;;8.90;99.90;;;;;;5053815;28;20059;-68
2021/11/02 09:52:34;;;;;;;12.88;9.30;;;8.90;99.90;;;;;;5057327;28;20051;-68
2021/11/02 09:55:48;;;;;;;10.05;8.35;;;8.80;99.90;;;;;;5055131;28;20044;-68
2021/11/02 09:58:56;;;;;;;11.18;8.15;;;8.80;99.90;;;;;;5056486;28;20044;-68
2021/11/02 10:01:32;;;;;;;11.00;7.53;;;8.90;99.90;;;;;;5057863;28;20087;-69
2021/11/02 10:04:02;;;;;;;12.43;8.10;;;8.90;99.90;;;;;;5051499;28;20037;-68
2021/11/02 10:07:01;;;;;;;11.23;8.77;;;8.90;99.90;;;;;;5055897;28;21849;-69
2021/11/02 10:09:46;;;;;;;12.75;8.80;;;9.00;99.90;;;;;;5056860;28;20441;-69
2021/11/02 10:12:15;;;;;;;8.63;7.72;;;9.00;99.90;;;;;;5053109;28;20045;-68
2021/11/02 10:15:10;;;;;;;13.82;8.75;;;9.20;99.90;;;;;;5054595;28;20043;-68
2021/11/02 10:18:25;;;;;;;13.48;9.05;;;9.30;99.90;;;;;;5060127;28;20036;-68
2021/11/02 10:21:05;;;;;;;12.85;9.38;;;9.40;99.90;;;;;;5060490;28;20041;-68
2021/11/02 10:23:58;;;;;;;10.43;8.85;;;9.50;99.90;;;;;;5058150;28;20486;-68
2021/11/02 10:26:25;;;;;;;10.50;9.48;;;9.50;99.90;;;;;;5050209;28;20060;-68
2021/11/02 10:29:13;;;;;;;11.23;9.85;;;9.50;99.90;;;;;;5054710;28;20509;-68
2021/11/02 10:32:09;;;;;;;12.35;9.98;;;9.40;99.90;;;;;;5054549;28;20380;-68
2021/11/02 10:35:02;;;;;;;11.90;10.68;;;9.40;99.90;;;;;;5055372;28;21051;-68
2021/11/02 10:37:40;;;;;;;15.65;11.20;;;9.50;99.90;;;;;;5055516;28;20048;-68
2021/11/02 10:40:33;;;;;;;22.33;11.68;;;9.40;99.90;;;;;;5058448;28;20033;-68
2021/11/02 10:43:32;;;;;;;14.32;11.45;;;9.40;99.90;;;;;;5054693;28;20048;-68
2021/11/02 10:46:05;;;;;;;12.10;10.80;;;9.40;99.90;;;;;;5032994;28;20521;-68
2021/11/02 10:48:51;;;;;;;11.88;10.68;;;9.50;99.90;;;;;;5088046;28;20043;-68
2021/11/02 10:51:34;;;;;;;11.30;8.50;;;9.50;99.90;;;;;;5055684;28;20554;-68
2021/11/02 10:54:05;;;;;;;9.48;8.50;;;9.50;99.90;;;;;;5052485;28;20431;-68
2021/11/02 10:56:41;;;;;;;9.38;8.45;;;9.50;99.90;;;;;;5054322;28;20033;-68
2021/11/02 10:59:15;;;;;;;11.50;8.75;;;9.60;99.90;;;;;;5057629;28;20829;-68
2021/11/02 11:01:47;;;;;;;9.40;7.13;;;9.50;99.90;;;;;;5054013;28;20051;-68
2021/11/02 11:04:14;;;;;;;9.93;7.38;;;9.60;99.90;;;;;;5052291;28;20222;-68
2021/11/02 11:06:43;;;;;;;9.88;8.23;;;9.50;99.90;;;;;;5053395;28;20049;-68
2021/11/02 11:09:13;;;;;;;10.02;7.28;;;9.60;99.90;;;;;;5055834;28;20041;-68
2021/11/02 11:11:46;;;;;;;5.85;5.25;;;9.70;99.90;;;;;;5052932;28;20052;-68
2021/11/02 11:14:15;;;;;;;10.75;6.75;;;9.70;99.90;;;;;;5053636;28;20044;-68
2021/11/02 11:16:48;;;;;;;9.27;5.80;;;9.80;99.90;;;;;;5053312;28;20538;-68
2021/11/02 11:19:29;;;;;;;6.72;6.03;;;9.80;99.90;;;;;;5054251;28;20048;-68
2021/11/02 11:21:59;;;;;;;7.78;5.95;;;9.80;99.90;;;;;;5056516;28;20036;-68
2021/11/02 11:24:52;;;;;;;8.43;5.97;;;9.80;99.90;;;;;;5051212;28;20120;-68
2021/11/02 11:27:18;;;;;;;16.13;6.90;;;9.80;99.90;;;;;;5055792;28;20441;-68
2021/11/02 11:29:49;;;;;;;9.40;6.07;;;9.70;99.90;;;;;;5088736;27;20075;-67
2021/11/02 11:32:18;;;;;;;8.98;5.80;;;9.70;99.90;;;;;;5055323;28;20071;-68
2021/11/02 11:34:50;;;;;;;10.27;6.45;;;9.90;99.90;;;;;;5051558;28;20037;-68
2021/11/02 11:37:27;;;;;;;10.45;5.82;;;9.80;99.90;;;;;;5054769;28;20055;-68
2021/11/02 11:40:00;;;;;;;8.30;5.10;;;9.80;99.90;;;;;;5055396;28;20573;-68
2021/11/02 11:42:29;;;;;;;8.52;5.28;;;9.90;99.90;;;;;;5055415;28;20161;-68
2021/11/02 11:45:02;;;;;;;10.50;5.25;;;9.90;99.90;;;;;;5054885;28;20593;-68
2021/11/02 11:47:29;;;;;;;6.88;5.15;;;9.80;99.90;;;;;;5053005;28;20048;-68
2021/11/02 11:49:56;;;;;;;8.95;6.20;;;9.80;99.90;;;;;;5057153;28;20050;-68
2021/11/02 11:52:24;;;;;;;10.02;5.47;;;9.70;99.90;;;;;;5056103;28;20084;-68
2021/11/02 11:54:54;;;;;;;8.85;6.05;;;9.80;99.90;;;;;;5053795;28;20114;-68
2021/11/02 11:57:30;;;;;;;9.68;5.95;;;9.70;99.90;;;;;;5052337;28;20103;-68
2021/11/02 12:00:07;;;;;;;12.48;6.07;;;9.80;99.90;;;;;;5052572;28;20414;-68
2021/11/02 12:02:53;;;;;;;8.60;5.10;;;9.80;99.90;;;;;;5053761;28;20036;-68
2021/11/02 12:05:21;;;;;;;9.18;5.45;;;9.80;99.90;;;;;;5053040;28;20131;-68
2021/11/02 12:08:04;;;;;;;12.82;5.63;;;9.80;99.90;;;;;;5056185;28;20417;-68
2021/11/02 12:10:30;;;;;;;12.10;5.10;;;9.80;99.90;;;;;;5056770;28;20073;-68
2021/11/02 12:12:57;;;;;;;10.32;5.28;;;9.80;99.90;;;;;;5051981;28;20949;-68
2021/11/02 12:15:23;;;;;;;9.10;5.30;;;9.80;99.90;;;;;;5052859;28;20049;-68
2021/11/02 12:18:00;;;;;;;7.93;5.40;;;9.70;99.90;;;;;;5056242;28;20164;-68
2021/11/02 12:20:29;;;;;;;6.82;4.38;;;9.70;99.90;;;;;;5052718;28;20250;-68
2021/11/02 12:23:02;;;;;;;11.05;5.15;;;9.70;99.90;;;;;;5054205;28;20052;-68
2021/11/02 12:25:33;;;;;;;7.53;4.82;;;9.70;99.90;;;;;;5054390;28;20150;-68
2021/11/02 12:28:00;;;;;;;7.07;5.82;;;9.70;99.90;;;;;;5053294;28;20525;-68
2021/11/02 12:30:27;;;;;;;7.55;5.13;;;9.70;99.90;;;;;;5052767;28;20184;-68
2021/11/02 12:32:57;;;;;;;6.40;5.25;;;9.80;99.90;;;;;;5054431;28;20055;-68
2021/11/02 12:35:31;;;;;;;12.90;6.28;;;9.80;99.90;;;;;;5084437;28;20044;-68
2021/11/02 12:38:00;;;;;;;7.68;5.55;;;9.80;99.90;;;;;;5056112;28;20043;-68
2021/11/02 12:40:32;;;;;;;8.23;5.32;;;9.80;99.90;;;;;;5052075;28;20041;-68
2021/11/02 12:42:58;;;;;;;7.18;5.30;;;9.90;99.90;;;;;;5054802;28;20049;-68
2021/11/02 12:45:27;;;;;;;10.18;5.63;;;9.90;99.90;;;;;;5055203;28;20043;-67
2021/11/02 12:47:59;;;;;;;10.27;6.13;;;9.90;99.90;;;;;;5053262;28;20562;-68
2021/11/02 12:50:27;;;;;;;9.32;5.38;;;9.90;99.90;;;;;;5051188;28;20130;-68
2021/11/02 12:52:56;;;;;;;7.57;5.55;;;9.90;99.90;;;;;;5053147;28;20079;-68
2021/11/02 12:55:28;;;;;;;9.18;5.45;;;9.80;99.90;;;;;;5050446;28;20060;-68
2021/11/02 12:58:10;;;;;;;9.18;5.63;;;9.80;99.90;;;;;;5051719;28;20049;-68
2021/11/02 13:00:52;;;;;;;16.00;6.78;;;9.90;99.90;;;;;;5056262;28;20047;-68
2021/11/02 13:03:19;;;;;;;10.77;6.40;;;9.90;99.90;;;;;;5057951;28;20089;-68
2021/11/02 13:05:58;;;;;;;8.23;5.55;;;9.90;99.90;;;;;;5087435;28;20049;-67
2021/11/02 13:08:32;;;;;;;7.07;6.32;;;9.80;99.90;;;;;;5053345;28;20352;-68
2021/11/02 13:11:19;;;;;;;11.52;5.93;;;9.80;99.90;;;;;;5055379;28;20080;-68
2021/11/02 13:13:59;;;;;;;11.93;6.75;;;9.80;99.90;;;;;;5050595;28;20044;-68
2021/11/02 13:16:26;;;;;;;8.93;5.63;;;9.80;99.90;;;;;;5052425;28;20111;-68
2021/11/02 13:18:52;;;;;;;9.23;5.18;;;9.70;99.90;;;;;;5050247;28;20518;-68
2021/11/02 13:21:30;;;;;;;11.18;6.05;;;9.70;99.90;;;;;;5052507;28;20037;-68
2021/11/02 13:24:02;;;;;;;11.73;6.10;;;9.70;99.90;;;;;;5054237;28;20037;-68
2021/11/02 13:26:28;;;;;;;8.93;5.38;;;9.70;99.90;;;;;;5051699;28;20687;-68
2021/11/02 13:29:18;;;;;;;17.38;6.40;;;9.70;99.90;;;;;;5052383;28;20051;-68
2021/11/02 13:31:48;;;;;;;8.52;5.85;;;9.80;99.90;;;;;;5049198;28;20044;-68
2021/11/02 13:34:17;;;;;;;14.13;5.70;;;9.80;99.90;;;;;;5052357;28;20075;-68
2021/11/02 13:36:43;;;;;;;8.80;5.88;;;9.80;99.90;;;;;;5049927;28;20047;-68
2021/11/02 13:39:12;;;;;;;7.25;5.45;;;9.80;99.90;;;;;;5052324;28;20063;-68
2021/11/02 13:41:45;;;;;;;10.88;6.35;;;9.80;99.90;;;;;;5049586;28;20071;-68
2021/11/02 13:44:11;;;;;;;16.65;6.15;;;9.80;99.90;;;;;;5050014;28;20044;-68
2021/11/02 13:46:49;;;;;;;9.95;6.35;;;9.70;99.90;;;;;;5085158;28;20045;-68
2021/11/02 13:49:16;;;;;;;8.48;5.22;;;9.80;99.90;;;;;;5050674;28;20045;-68
2021/11/02 13:51:43;;;;;;;8.45;5.65;;;9.80;99.90;;;;;;5052903;28;20101;-68
2021/11/02 13:54:10;;;;;;;5.25;4.72;;;9.80;99.90;;;;;;5056254;28;20086;-68
2021/11/02 13:56:39;;;;;;;7.80;5.15;;;9.70;99.90;;;;;;5057012;28;20055;-68
2021/11/02 13:59:06;;;;;;;5.90;4.88;;;9.70;99.90;;;;;;5055437;28;20041;-68
2021/11/02 14:01:49;;;;;;;6.75;5.88;;;9.80;99.90;;;;;;5057279;28;20044;-68
2021/11/02 14:04:18;;;;;;;10.05;5.72;;;9.80;99.90;;;;;;5055750;28;20048;-68
2021/11/02 14:06:47;;;;;;;6.25;5.63;;;9.80;99.90;;;;;;5059234;28;20597;-68
2021/11/02 14:09:17;;;;;;;5.13;4.68;;;9.80;99.90;;;;;;5055520;28;20052;-68
2021/11/02 14:11:43;;;;;;;11.88;4.20;;;9.80;99.90;;;;;;5055427;28;20125;-68
2021/11/02 14:14:10;;;;;;;5.07;3.65;;;9.90;99.90;;;;;;5056890;28;20044;-68
2021/11/02 14:16:41;;;;;;;3.70;3.28;;;9.90;99.90;;;;;;5070361;28;20512;-68
2021/11/02 14:19:33;;;;;;;3.42;3.13;;;9.80;99.90;;;;;;5056370;28;20428;-68
2021/11/02 14:22:02;;;;;;;7.88;4.68;;;9.90;99.90;;;;;;5052987;28;20044;-68
2021/11/02 14:24:37;;;;;;;4.95;3.38;;;9.80;99.90;;;;;;5087594;28;20050;-68
2021/11/02 14:27:05;;;;;;;7.13;4.00;;;9.80;99.90;;;;;;5055175;28;20053;-68
2021/11/02 14:29:51;;;;;;;3.70;3.17;;;9.80;99.90;;;;;;5058388;28;20054;-68
2021/11/02 14:32:35;;;;;;;5.30;3.35;;;9.80;99.90;;;;;;5053000;28;20564;-68
2021/11/02 14:35:05;;;;;;;4.22;3.08;;;9.80;99.90;;;;;;5053140;28;20072;-68
2021/11/02 14:37:48;;;;;;;3.55;3.15;;;9.70;99.90;;;;;;5054125;28;20044;-68
2021/11/02 14:40:35;;;;;;;5.25;3.55;;;9.80;99.90;;;;;;5056446;28;20494;-68
2021/11/02 14:43:13;;;;;;;6.47;3.75;;;9.70;99.90;;;;;;5051854;28;20119;-68
2021/11/02 14:45:43;;;;;;;4.03;3.63;;;9.70;99.90;;;;;;5055449;28;20059;-68
2021/11/02 14:48:41;;;;;;;14.18;5.20;;;9.60;99.90;;;;;;5055298;28;20041;-68
2021/11/02 14:51:20;;;;;;;5.03;3.35;;;9.70;99.90;;;;;;5055033;28;20105;-68
2021/11/02 14:53:47;;;;;;;6.90;3.40;;;9.70;99.90;;;;;;5054103;28;20607;-68
2021/11/02 14:56:27;;;;;;;5.63;3.25;;;9.60;99.90;;;;;;5054554;28;20037;-68
2021/11/02 14:58:54;;;;;;;4.18;3.38;;;9.60;99.90;;;;;;5055536;28;20040;-68
2021/11/02 15:01:32;;;;;;;4.97;3.10;;;9.60;99.90;;;;;;5055686;28;20064;-68
2021/11/02 15:04:11;;;;;;;4.13;3.58;;;9.60;99.90;;;;;;5050801;28;20484;-68
2021/11/02 15:07:03;;;;;;;3.83;3.42;;;9.60;99.90;;;;;;5058229;28;20044;-68
2021/11/02 15:09:34;;;;;;;7.95;3.83;;;9.60;99.90;;;;;;5056487;28;20105;-68
2021/11/02 15:12:00;;;;;;;5.90;3.70;;;9.60;99.90;;;;;;5054599;28;20127;-68
2021/11/02 15:14:28;;;;;;;4.00;3.25;;;9.60;99.90;;;;;;5055164;28;20082;-68
2021/11/02 15:16:57;;;;;;;5.63;4.13;;;9.50;99.90;;;;;;5054874;28;20587;-68
2021/11/02 15:19:25;;;;;;;4.18;3.67;;;9.50;99.90;;;;;;5055252;28;20036;-68
2021/11/02 15:21:59;;;;;;;6.47;4.03;;;9.50;99.90;;;;;;5085196;27;20052;-68
2021/11/02 15:24:31;;;;;;;5.03;4.10;;;9.50;99.90;;;;;;5054106;28;20040;-68
2021/11/02 15:27:01;;;;;;;7.82;4.47;;;9.40;99.90;;;;;;5057047;28;20623;-68
2021/11/02 15:29:31;;;;;;;5.90;4.57;;;9.40;99.90;;;;;;5057132;28;20166;-68
2021/11/02 15:32:17;;;;;;;6.57;4.47;;;9.40;99.90;;;;;;5054428;28;20076;-68
2021/11/02 15:34:53;;;;;;;8.70;4.97;;;9.40;99.90;;;;;;5051420;28;20561;-68
2021/11/02 15:37:25;;;;;;;7.15;4.88;;;9.40;99.90;;;;;;5056191;28;20036;-68
2021/11/02 15:39:54;;;;;;;6.95;4.32;;;9.30;99.90;;;;;;5055860;28;20100;-68
2021/11/02 15:42:33;;;;;;;6.38;4.60;;;9.30;99.90;;;;;;5056009;28;20041;-68
2021/11/02 15:45:30;;;;;;;6.75;5.10;;;9.30;99.90;;;;;;5060797;28;20033;-68
2021/11/02 15:48:05;;;;;;;5.38;4.80;;;9.30;99.90;;;;;;5055032;28;20048;-68
2021/11/02 15:50:31;;;;;;;9.18;5.40;;;9.10;99.90;;;;;;5056266;28;20053;-68
2021/11/02 15:52:58;;;;;;;5.97;4.82;;;9.20;99.90;;;;;;5083664;28;20044;-68
2021/11/02 15:55:26;;;;;;;6.32;5.10;;;9.20;99.90;;;;;;5053072;28;20386;-68
2021/11/02 15:57:54;;;;;;;5.10;4.55;;;9.10;99.90;;;;;;5054972;28;20122;-68
2021/11/02 16:00:25;;;;;;;8.07;5.90;;;9.10;99.90;;;;;;5052232;28;20045;-68
2021/11/02 16:02:50;;;;;;;7.93;5.40;;;9.10;99.90;;;;;;5053470;28;20037;-67
2021/11/02 16:05:22;;;;;;;7.25;5.22;;;9.10;99.90;;;;;;5057894;28;20390;-68
2021/11/02 16:07:48;;;;;;;7.68;5.35;;;9.10;99.90;;;;;;5052963;28;20741;-68
2021/11/02 16:10:22;;;;;;;6.47;5.20;;;9.00;99.90;;;;;;5052838;28;20052;-68
2021/11/02 16:12:48;;;;;;;6.63;5.65;;;9.00;99.90;;;;;;5049840;28;20048;-68
2021/11/02 16:15:18;;;;;;;9.18;5.70;;;9.00;99.90;;;;;;5071629;28;20044;-68
2021/11/02 16:17:53;;;;;;;6.25;5.32;;;9.00;99.90;;;;;;5054657;28;20044;-68
2021/11/02 16:20:39;;;;;;;6.28;5.68;;;9.00;99.90;;;;;;5052330;28;20040;-68
2021/11/02 16:23:15;;;;;;;6.70;5.78;;;9.00;99.90;;;;;;5050877;28;20091;-68
2021/11/02 16:26:36;;;;;;;7.95;5.93;;;8.90;99.90;;;;;;5084825;28;21622;-68
2021/11/02 16:29:15;;;;;;;7.28;6.38;;;8.90;99.90;;;;;;5015778;28;20048;-68
2021/11/02 16:31:42;;;;;;;6.95;6.25;;;8.80;99.90;;;;;;5054024;28;20044;-68
2021/11/02 16:34:19;;;;;;;7.18;6.22;;;8.80;99.90;;;;;;5059962;28;20097;-68
2021/11/02 16:36:45;;;;;;;8.02;5.60;;;8.80;99.90;;;;;;5060958;28;20048;-68
2021/11/02 16:39:13;;;;;;;7.60;6.43;;;8.80;99.90;;;;;;5061369;28;20756;-68
2021/11/02 16:41:48;;;;;;;6.80;6.15;;;8.80;99.90;;;;;;5060925;28;20041;-67
2021/11/02 16:44:24;;;;;;;7.65;6.80;;;8.80;99.90;;;;;;5057751;28;20075;-67
2021/11/02 16:46:51;;;;;;;9.27;6.38;;;8.80;99.90;;;;;;5089771;28;20048;-68
2021/11/02 16:49:20;;;;;;;7.60;6.53;;;8.80;99.90;;;;;;5060618;28;20044;-68
2021/11/02 16:51:47;;;;;;;7.82;7.03;;;8.80;99.90;;;;;;5091083;28;20102;-68
2021/11/02 16:54:15;;;;;;;12.75;7.38;;;8.80;99.90;;;;;;5060118;28;20439;-68
2021/11/02 16:57:17;;;;;;;8.13;7.20;;;8.80;99.90;;;;;;5061068;28;20374;-68
2021/11/02 16:59:50;;;;;;;11.68;8.10;;;8.80;99.90;;;;;;5059849;28;20143;-68
2021/11/02 17:02:24;;;;;;;7.63;6.85;;;8.80;99.90;;;;;;5057926;28;20098;-69
2021/11/02 17:05:13;;;;;;;7.68;6.70;;;8.80;99.90;;;;;;5061372;28;20125;-68
2021/11/02 17:07:41;;;;;;;10.07;7.35;;;8.80;99.90;;;;;;5060307;28;20036;-68
2021/11/02 17:10:35;;;;;;;11.18;7.75;;;8.80;99.90;;;;;;5088259;28;20056;-68
2021/11/02 17:13:20;;;;;;;8.50;7.10;;;8.80;99.90;;;;;;5055153;28;20056;-68
2021/11/02 17:16:00;;;;;;;8.55;7.55;;;8.80;99.90;;;;;;5056029;28;20044;-68
2021/11/02 17:18:26;;;;;;;8.95;7.80;;;8.80;99.90;;;;;;5058478;28;20448;-68
2021/11/02 17:21:07;;;;;;;10.27;7.72;;;8.80;99.90;;;;;;5056969;28;20393;-68
2021/11/02 17:23:34;;;;;;;8.80;7.90;;;8.80;99.90;;;;;;5056314;28;20094;-68
2021/11/02 17:26:00;;;;;;;9.98;9.05;;;8.80;99.90;;;;;;5057714;28;20045;-68
2021/11/02 17:28:26;;;;;;;12.07;8.50;;;8.80;99.90;;;;;;5059671;28;20048;-68
2021/11/02 17:30:52;;;;;;;9.60;8.60;;;8.80;99.90;;;;;;5058119;28;20044;-68
2021/11/02 17:33:18;;;;;;;9.75;8.68;;;8.80;99.90;;;;;;5058784;28;20383;-68
2021/11/02 17:35:46;;;;;;;9.48;8.50;;;8.80;99.90;;;;;;5064175;28;20048;-68
2021/11/02 17:38:13;;;;;;;13.05;8.05;;;8.80;99.90;;;;;;5057234;28;20047;-68
2021/11/02 17:40:40;;;;;;;11.32;8.77;;;8.80;99.90;;;;;;5061957;28;20475;-68
2021/11/02 17:43:07;;;;;;;11.10;9.02;;;8.70;99.90;;;;;;5057571;28;20116;-68
2021/11/02 17:45:33;;;;;;;12.60;9.80;;;8.70;99.90;;;;;;5065246;28;20094;-68
2021/11/02 17:47:59;;;;;;;12.45;9.80;;;8.80;99.90;;;;;;5059818;28;20033;-68
2021/11/02 17:50:31;;;;;;;10.70;9.65;;;8.70;99.90;;;;;;5060405;28;20101;-68
2021/11/02 17:52:57;;;;;;;11.48;8.93;;;8.70;99.90;;;;;;5055116;28;20564;-68
2021/11/02 17:55:25;;;;;;;10.50;9.45;;;8.70;99.90;;;;;;5061941;28;20048;-68
2021/11/02 17:57:52;;;;;;;8.85;8.05;;;8.80;99.90;;;;;;5063469;28;20122;-68
2021/11/02 18:00:21;;;;;;;8.70;7.63;;;8.70;99.90;;;;;;5048885;28;20060;-68